Midnight Wolf — HO7969 — position and weather

sailwx.info

Track history (hours):
 
Tides and Currents Weather Stations Pressure Air Temp Water Temp Dewpoint Dewpoint Depression Visibility Wind Speed Wind Dir Waves Ship Positions

Midnight Wolf

Last reported at 2014-Oct-31 09:13 UTC. Time now 2014-Oct-31 17:11 UTC.
Position N 18°07' W 063°05'.

Length 51 m; draft 3 m.

Type: Cargo ship. MMSI: 351880000.

Date/timePositionNaut miles runAvg speedWind from/ knotsBaromVisibWave heightAir tempDewpointWater temp
2014-Oct-31 09:13N 18°07' W 063°05'2 2.3
2014-Oct-31 08:31N 18°05' W 063°05'0 0.0
2014-Oct-31 07:34N 18°05' W 063°05'4 3.9
2014-Oct-31 06:32N 18°05' W 063°09'9 9.1
2014-Oct-31 05:32N 17°56' W 063°12'10 0.5
2014-Oct-30 08:30N 17°50' W 063°04'8 8.4
2014-Oct-30 07:30N 17°57' W 063°07'8 7.9
2014-Oct-30 06:32N 18°05' W 063°10'4 4.3
2014-Oct-30 05:33N 18°05' W 063°05'0 0.0
2014-Oct-30 04:31N 18°05' W 063°05'0 0.0
2014-Oct-30 03:33N 18°05' W 063°05'0 0.0
2014-Oct-30 02:32N 18°05' W 063°05'0 0.0
2014-Oct-30 01:33N 18°05' W 063°05'0 0.0
2014-Oct-30 00:32N 18°05' W 063°05'0 0.0
2014-Oct-29 23:33N 18°05' W 063°05'0 0.0
2014-Oct-29 22:32N 18°05' W 063°05'5 4.9
2014-Oct-29 21:32N 18°02' W 063°09'9 9.3
2014-Oct-29 20:33N 17°54' W 063°06'34 0.8
2014-Oct-28 04:14N 18°13' W 063°35'7 9.6
2014-Oct-28 03:33N 18°13' W 063°28'9 8.9
2014-Oct-28 02:33N 18°12' W 063°19'10 9.6
2014-Oct-28 01:32N 18°12' W 063°09'0 0.1
2014-Oct-27 21:08N 18°12' W 063°09'5 9.0
2014-Oct-27 20:33N 18°12' W 063°15'9 8.6
2014-Oct-27 19:33N 18°13' W 063°24'9 8.7
2014-Oct-27 18:33N 18°13' W 063°33'  
2014-Oct-23 19:33N 16°50' W 062°15'10 8.3
2014-Oct-23 18:22N 16°56' W 062°24'63 8.8
2014-Oct-23 11:12N 17°35' W 063°14'9 8.4
2014-Oct-23 10:07N 17°42' W 063°22'7 8.3
2014-Oct-23 09:17N 17°46' W 063°27'7 8.3
2014-Oct-23 08:29N 17°49' W 063°33'19 0.7
2014-Oct-22 03:32N 18°08' W 063°34'9 9.2
2014-Oct-22 02:33N 18°07' W 063°24'9 9.3
2014-Oct-22 01:32N 18°06' W 063°14'9 7.2
2014-Oct-22 00:19N 18°05' W 063°05'0 0.0
2014-Oct-21 23:32N 18°05' W 063°05'0 0.0
2014-Oct-21 22:32N 18°05' W 063°05'0 0.0
2014-Oct-21 21:31N 18°05' W 063°05'0 0.0
2014-Oct-21 20:33N 18°05' W 063°05'0 0.0
2014-Oct-21 19:32N 18°05' W 063°05'  
Track history (hours):
 
Tides and Currents Weather Stations Pressure Air Temp Water Temp Dewpoint Dewpoint Depression Visibility Wind Speed Wind Dir Waves Ship Positions

Midnight Wolf

Last reported at 2014-Oct-31 09:13 UTC. Time now 2014-Oct-31 17:11 UTC.
Position N 18°07' W 063°05'.

Length 51 m; draft 3 m.

Type: Cargo ship. MMSI: 351880000.

Date/timePositionNaut miles runAvg speedWind from/ knotsBaromVisibWave heightAir tempDewpointWater temp
2014-Oct-31 09:13N 18°07' W 063°05'2 2.3
2014-Oct-31 08:31N 18°05' W 063°05'0 0.0
2014-Oct-31 07:34N 18°05' W 063°05'4 3.9
2014-Oct-31 06:32N 18°05' W 063°09'9 9.1
2014-Oct-31 05:32N 17°56' W 063°12'10 0.5
2014-Oct-30 08:30N 17°50' W 063°04'8 8.4
2014-Oct-30 07:30N 17°57' W 063°07'8 7.9
2014-Oct-30 06:32N 18°05' W 063°10'4 4.3
2014-Oct-30 05:33N 18°05' W 063°05'0 0.0
2014-Oct-30 04:31N 18°05' W 063°05'0 0.0
2014-Oct-30 03:33N 18°05' W 063°05'0 0.0
2014-Oct-30 02:32N 18°05' W 063°05'0 0.0
2014-Oct-30 01:33N 18°05' W 063°05'0 0.0
2014-Oct-30 00:32N 18°05' W 063°05'0 0.0
2014-Oct-29 23:33N 18°05' W 063°05'0 0.0
2014-Oct-29 22:32N 18°05' W 063°05'5 4.9
2014-Oct-29 21:32N 18°02' W 063°09'9 9.3
2014-Oct-29 20:33N 17°54' W 063°06'34 0.8
2014-Oct-28 04:14N 18°13' W 063°35'7 9.6
2014-Oct-28 03:33N 18°13' W 063°28'9 8.9
2014-Oct-28 02:33N 18°12' W 063°19'10 9.6
2014-Oct-28 01:32N 18°12' W 063°09'0 0.1
2014-Oct-27 21:08N 18°12' W 063°09'5 9.0
2014-Oct-27 20:33N 18°12' W 063°15'9 8.6
2014-Oct-27 19:33N 18°13' W 063°24'9 8.7
2014-Oct-27 18:33N 18°13' W 063°33'  
2014-Oct-23 19:33N 16°50' W 062°15'10 8.3
2014-Oct-23 18:22N 16°56' W 062°24'63 8.8
2014-Oct-23 11:12N 17°35' W 063°14'9 8.4
2014-Oct-23 10:07N 17°42' W 063°22'7 8.3
2014-Oct-23 09:17N 17°46' W 063°27'7 8.3
2014-Oct-23 08:29N 17°49' W 063°33'19 0.7
2014-Oct-22 03:32N 18°08' W 063°34'9 9.2
2014-Oct-22 02:33N 18°07' W 063°24'9 9.3
2014-Oct-22 01:32N 18°06' W 063°14'9 7.2
2014-Oct-22 00:19N 18°05' W 063°05'0 0.0
2014-Oct-21 23:32N 18°05' W 063°05'0 0.0
2014-Oct-21 22:32N 18°05' W 063°05'0 0.0
2014-Oct-21 21:31N 18°05' W 063°05'0 0.0
2014-Oct-21 20:33N 18°05' W 063°05'0 0.0
2014-Oct-21 19:32N 18°05' W 063°05'  

Dump ship's entire track history